createdAt,value
2023-12-24T00:03:18.487Z,0.60
2023-12-24T00:06:43.522Z,0.67
2023-12-24T00:10:10.181Z,0.80
2023-12-24T00:13:34.765Z,0.60
2023-12-24T00:17:00.619Z,0.70
2023-12-24T00:20:24.763Z,0.60
2023-12-24T00:23:50.893Z,0.70
2023-12-24T00:27:14.700Z,0.70
2023-12-24T00:30:38.722Z,0.60
2023-12-24T00:34:03.841Z,0.70
2023-12-24T00:37:27.561Z,0.60
2023-12-24T00:40:51.456Z,0.60
2023-12-24T00:44:15.459Z,0.63
2023-12-24T00:47:40.581Z,0.63
2023-12-24T00:51:06.008Z,0.70
2023-12-24T00:54:30.038Z,0.67
2023-12-24T00:57:54.019Z,0.87
2023-12-24T01:01:18.007Z,0.60
2023-12-24T01:04:41.943Z,0.60
2023-12-24T01:08:07.700Z,0.70
2023-12-24T01:11:31.633Z,0.60
2023-12-24T01:14:55.637Z,0.60
2023-12-24T01:18:19.679Z,0.63
2023-12-24T01:21:43.517Z,0.60
2023-12-24T01:25:10.166Z,0.60
2023-12-24T01:28:35.617Z,0.60
2023-12-24T01:31:59.223Z,0.60
2023-12-24T01:35:23.117Z,0.60
2023-12-24T01:38:46.754Z,0.50
2023-12-24T01:42:11.635Z,0.63
2023-12-24T01:45:35.239Z,0.63
2023-12-24T01:49:00.562Z,0.87
2023-12-24T01:52:27.878Z,0.70
2023-12-24T01:55:51.706Z,0.60
2023-12-24T01:59:17.987Z,0.73
2023-12-24T02:02:41.973Z,0.70
2023-12-24T02:06:10.311Z,0.60
2023-12-24T02:09:34.078Z,0.60
2023-12-24T02:12:58.053Z,0.70
2023-12-24T02:16:26.655Z,0.70
2023-12-24T02:19:51.148Z,0.70
2023-12-24T02:23:16.069Z,0.73
2023-12-24T02:26:50.130Z,0.73
2023-12-24T02:30:22.298Z,0.60
2023-12-24T02:33:48.279Z,0.70
2023-12-24T02:37:12.778Z,0.70
2023-12-24T02:40:37.705Z,0.70
2023-12-24T02:44:01.857Z,0.80
2023-12-24T02:47:25.442Z,0.73
2023-12-24T02:50:49.390Z,0.70
2023-12-24T02:54:13.309Z,0.73
2023-12-24T02:57:38.666Z,0.60
2023-12-24T03:01:03.189Z,0.70
2023-12-24T03:04:26.984Z,0.67
2023-12-24T03:07:50.859Z,0.80
2023-12-24T03:11:14.857Z,0.70
2023-12-24T03:14:40.158Z,0.70
2023-12-24T03:18:04.309Z,0.70
2023-12-24T03:21:28.193Z,0.60
2023-12-24T03:24:52.006Z,0.70
2023-12-24T03:28:15.542Z,0.80
2023-12-24T03:31:40.567Z,0.80
2023-12-24T03:35:04.795Z,0.63
2023-12-24T03:38:29.114Z,0.70
2023-12-24T03:41:53.319Z,0.80
2023-12-24T03:45:17.390Z,0.70
2023-12-24T03:48:42.402Z,0.77
2023-12-24T03:52:07.484Z,0.70
2023-12-24T03:55:31.332Z,0.60
2023-12-24T03:58:55.141Z,0.70
2023-12-24T04:02:18.766Z,0.70
2023-12-24T04:05:44.175Z,0.70
2023-12-24T04:09:09.844Z,0.70
2023-12-24T04:12:33.763Z,0.70
2023-12-24T04:15:57.684Z,0.80
2023-12-24T04:19:22.822Z,0.70
2023-12-24T04:22:48.541Z,0.80
2023-12-24T04:26:12.337Z,0.80
2023-12-24T04:29:36.328Z,0.60
2023-12-24T04:33:00.907Z,0.80
2023-12-24T04:36:25.055Z,0.73
2023-12-24T04:39:50.377Z,0.90
2023-12-24T04:43:14.205Z,0.70
2023-12-24T04:46:43.966Z,0.90
2023-12-24T04:50:09.400Z,0.90
2023-12-24T04:53:34.485Z,0.80
2023-12-24T04:57:00.126Z,0.90
2023-12-24T05:00:24.671Z,1.20
2023-12-24T05:03:48.684Z,0.70
2023-12-24T05:07:12.229Z,0.80
2023-12-24T05:10:36.716Z,0.90
2023-12-24T05:14:02.805Z,0.70
2023-12-24T05:17:26.876Z,0.70
2023-12-24T05:20:50.570Z,0.70
2023-12-24T05:24:14.505Z,0.80
2023-12-24T05:27:39.574Z,0.70
2023-12-24T05:31:04.722Z,0.63
2023-12-24T05:34:28.727Z,0.67
2023-12-24T05:37:52.327Z,0.60
2023-12-24T05:41:18.675Z,0.73
2023-12-24T05:44:42.281Z,0.63
2023-12-24T05:48:08.523Z,0.70
2023-12-24T05:51:32.105Z,0.70
2023-12-24T05:54:56.210Z,0.60
2023-12-24T05:58:21.536Z,0.70
2023-12-24T06:01:45.473Z,0.70
2023-12-24T06:05:11.238Z,0.70
2023-12-24T06:08:35.040Z,0.70
2023-12-24T06:11:59.065Z,0.70
2023-12-24T06:15:22.964Z,0.80
2023-12-24T06:18:46.953Z,0.70
2023-12-24T06:22:12.199Z,0.70
2023-12-24T06:25:37.898Z,0.60
2023-12-24T06:29:03.197Z,0.70
2023-12-24T06:32:26.968Z,0.80
2023-12-24T06:35:50.997Z,0.70
2023-12-24T06:39:15.853Z,0.67
2023-12-24T06:42:40.012Z,0.60
2023-12-24T06:46:03.545Z,0.60
2023-12-24T06:49:27.406Z,0.60
2023-12-24T06:52:51.434Z,0.60
2023-12-24T06:56:16.781Z,0.67
2023-12-24T06:59:40.630Z,0.60
2023-12-24T07:03:04.468Z,0.70
2023-12-24T07:06:28.128Z,0.60
2023-12-24T07:09:51.764Z,0.60
2023-12-24T07:13:17.447Z,0.70
2023-12-24T07:16:41.448Z,0.80
2023-12-24T07:20:05.624Z,0.70
2023-12-24T07:23:29.555Z,0.60
2023-12-24T07:26:53.075Z,0.57
2023-12-24T07:30:18.182Z,0.70
2023-12-24T07:33:42.223Z,0.70
2023-12-24T07:37:06.268Z,0.70
2023-12-24T07:40:30.098Z,0.70
2023-12-24T07:43:53.614Z,0.60
2023-12-24T07:47:18.830Z,0.80
2023-12-24T07:50:45.356Z,0.70
2023-12-24T07:54:09.333Z,0.60
2023-12-24T07:57:33.197Z,0.60
2023-12-24T08:00:56.783Z,0.60
2023-12-24T08:04:21.645Z,0.60
2023-12-24T08:07:45.531Z,0.70
2023-12-24T08:11:16.631Z,0.60
2023-12-24T08:14:42.849Z,0.63
2023-12-24T08:18:07.247Z,0.60
2023-12-24T08:21:32.596Z,0.70
2023-12-24T08:24:56.148Z,0.60
2023-12-24T08:28:19.766Z,0.60
2023-12-24T08:31:43.718Z,0.60
2023-12-24T08:35:10.748Z,0.70
2023-12-24T08:38:41.150Z,0.60
2023-12-24T08:42:05.294Z,0.63
2023-12-24T08:45:29.447Z,0.53
2023-12-24T08:48:54.297Z,0.60
2023-12-24T08:52:18.252Z,0.63
2023-12-24T08:55:43.078Z,0.60
2023-12-24T08:59:10.111Z,0.90
2023-12-24T09:02:34.481Z,0.60
2023-12-24T09:05:58.070Z,0.60
2023-12-24T09:09:22.094Z,0.60
2023-12-24T09:12:46.903Z,0.60
2023-12-24T09:16:11.014Z,0.70
2023-12-24T09:19:35.070Z,0.70
2023-12-24T09:22:58.582Z,0.70
2023-12-24T09:26:22.873Z,0.70
2023-12-24T09:29:48.386Z,0.60
2023-12-24T09:33:12.626Z,0.60
2023-12-24T09:36:36.924Z,0.60
2023-12-24T09:40:00.825Z,0.60
2023-12-24T09:43:25.817Z,0.60
2023-12-24T09:46:51.842Z,0.67
2023-12-24T09:50:17.131Z,0.63
2023-12-24T09:53:47.569Z,0.60
2023-12-24T09:57:11.177Z,0.60
2023-12-24T10:00:35.115Z,0.80
2023-12-24T10:04:00.399Z,0.70
2023-12-24T10:07:24.248Z,0.70
2023-12-24T10:10:47.782Z,0.80
2023-12-24T10:14:11.744Z,0.70
2023-12-24T10:17:37.445Z,0.70
2023-12-24T10:21:10.812Z,0.60
2023-12-24T10:24:36.117Z,0.70
2023-12-24T10:28:07.317Z,0.80
2023-12-24T10:31:31.196Z,0.70
2023-12-24T10:35:00.766Z,0.63
2023-12-24T10:38:31.766Z,0.70
2023-12-24T10:41:56.994Z,0.80
2023-12-24T10:45:21.023Z,0.60
2023-12-24T10:48:45.064Z,0.70
2023-12-24T10:52:08.689Z,0.70
2023-12-24T10:55:36.915Z,0.60
2023-12-24T10:59:12.385Z,0.70
2023-12-24T11:02:38.308Z,0.70
2023-12-24T11:06:02.378Z,0.60
2023-12-24T11:09:45.956Z,0.70
2023-12-24T11:13:13.253Z,0.60
2023-12-24T11:16:42.601Z,0.70
2023-12-24T11:20:31.719Z,0.80
2023-12-24T11:24:36.082Z,0.70
2023-12-24T11:28:06.088Z,0.60
2023-12-24T11:31:31.537Z,0.63
2023-12-24T11:34:56.041Z,0.60
2023-12-24T11:38:41.913Z,0.73
2023-12-24T11:42:07.186Z,0.80
2023-12-24T11:45:31.782Z,0.60
2023-12-24T11:48:58.579Z,0.70
2023-12-24T11:52:22.487Z,0.70
2023-12-24T11:55:46.295Z,0.73
2023-12-24T11:59:09.863Z,0.60
2023-12-24T12:02:33.684Z,0.60
2023-12-24T12:05:59.090Z,1.00
2023-12-24T12:09:23.770Z,0.80
2023-12-24T12:12:47.865Z,0.77
2023-12-24T12:16:12.768Z,0.70
2023-12-24T12:19:36.641Z,0.80
2023-12-24T12:23:01.552Z,0.60
2023-12-24T12:26:26.073Z,0.67
2023-12-24T12:29:49.910Z,0.60
2023-12-24T12:33:14.091Z,0.60
2023-12-24T12:36:37.992Z,0.67
2023-12-24T12:40:04.319Z,0.67
2023-12-24T12:43:27.797Z,0.60
2023-12-24T12:46:51.982Z,0.60
2023-12-24T12:50:15.903Z,0.60
2023-12-24T12:53:40.027Z,0.70
2023-12-24T12:57:05.672Z,0.70
2023-12-24T13:00:31.519Z,0.70
2023-12-24T13:03:59.692Z,0.63
2023-12-24T13:07:31.747Z,0.67
2023-12-24T13:10:55.533Z,0.57
2023-12-24T13:14:20.691Z,0.67
2023-12-24T13:17:44.627Z,0.60
2023-12-24T13:21:09.627Z,0.60
2023-12-24T13:24:34.284Z,0.60
2023-12-24T13:27:58.124Z,0.70
2023-12-24T13:31:25.806Z,0.60
2023-12-24T13:34:49.600Z,0.70
2023-12-24T13:38:19.674Z,0.60
2023-12-24T13:41:43.887Z,0.60
2023-12-24T13:45:09.916Z,0.70
2023-12-24T13:48:35.230Z,0.60
2023-12-24T13:51:59.120Z,0.70
2023-12-24T13:55:23.599Z,0.70
2023-12-24T13:58:47.465Z,0.60
2023-12-24T14:02:11.431Z,0.63
2023-12-24T14:05:37.578Z,0.70
2023-12-24T14:09:01.505Z,0.73
2023-12-24T14:12:26.117Z,0.70
2023-12-24T14:15:49.672Z,0.80
2023-12-24T14:19:13.343Z,0.77
2023-12-24T14:22:38.343Z,0.83
2023-12-24T14:26:02.474Z,0.87
2023-12-24T14:29:27.107Z,0.70
2023-12-24T14:32:52.167Z,0.60
2023-12-24T14:36:16.645Z,0.67
2023-12-24T14:39:41.744Z,0.70
2023-12-24T14:43:05.678Z,0.90
2023-12-24T14:46:29.210Z,0.70
2023-12-24T14:49:53.497Z,0.70
2023-12-24T14:53:17.110Z,0.90
2023-12-24T14:56:43.052Z,0.67
2023-12-24T15:00:08.204Z,0.90
2023-12-24T15:03:33.551Z,0.70
2023-12-24T15:06:58.884Z,0.70
2023-12-24T15:10:22.334Z,0.60
2023-12-24T15:13:47.871Z,0.70
2023-12-24T15:17:14.939Z,0.70
2023-12-24T15:20:38.734Z,0.60
2023-12-24T15:24:02.654Z,0.63
2023-12-24T15:27:27.433Z,0.60
2023-12-24T15:30:52.541Z,0.80
2023-12-24T15:34:16.599Z,0.60
2023-12-24T15:37:40.706Z,0.70
2023-12-24T15:41:04.796Z,0.60
2023-12-24T15:44:29.052Z,0.70
2023-12-24T15:47:54.329Z,0.70
2023-12-24T15:51:18.385Z,0.60
2023-12-24T15:54:42.993Z,0.60
2023-12-24T15:58:07.292Z,0.60
2023-12-24T16:01:31.325Z,0.70
2023-12-24T16:04:56.544Z,0.70
2023-12-24T16:08:21.638Z,0.80
2023-12-24T16:11:45.169Z,0.70
2023-12-24T16:15:09.950Z,0.70
2023-12-24T16:18:33.628Z,0.60
2023-12-24T16:21:59.003Z,0.70
2023-12-24T16:25:23.552Z,0.80
2023-12-24T16:28:47.969Z,0.70
2023-12-24T16:32:15.289Z,0.70
2023-12-24T16:35:39.746Z,0.70
2023-12-24T16:39:06.810Z,0.60
2023-12-24T16:42:30.779Z,0.63
2023-12-24T16:45:54.699Z,0.70
2023-12-24T16:49:18.751Z,0.60
2023-12-24T16:52:42.465Z,0.60
2023-12-24T16:56:07.987Z,0.80
2023-12-24T16:59:32.099Z,0.73
2023-12-24T17:03:02.311Z,0.60
2023-12-24T17:06:30.144Z,0.63
2023-12-24T17:09:54.237Z,0.60
2023-12-24T17:13:20.435Z,0.80
2023-12-24T17:16:44.004Z,0.80
2023-12-24T17:20:10.009Z,0.90
2023-12-24T17:23:34.124Z,0.80
2023-12-24T17:26:58.249Z,0.70
2023-12-24T17:30:23.684Z,0.70
2023-12-24T17:33:47.941Z,0.80
2023-12-24T17:37:11.603Z,0.80
2023-12-24T17:40:35.136Z,0.70
2023-12-24T17:43:59.093Z,0.80
2023-12-24T17:47:24.645Z,0.90
2023-12-24T17:50:48.349Z,0.70
2023-12-24T17:54:12.403Z,0.80
2023-12-24T17:57:36.401Z,0.90
2023-12-24T18:00:59.861Z,0.90
2023-12-24T18:04:24.781Z,0.90
2023-12-24T18:07:48.698Z,0.90
2023-12-24T18:11:16.537Z,0.70
2023-12-24T18:14:40.084Z,1.00
2023-12-24T18:18:04.097Z,0.90
2023-12-24T18:21:29.138Z,0.80
2023-12-24T18:24:52.704Z,0.80
2023-12-24T18:28:16.796Z,0.80
2023-12-24T18:31:42.870Z,0.90
2023-12-24T18:35:07.225Z,0.80
2023-12-24T18:38:32.779Z,0.80
2023-12-24T18:41:56.872Z,0.90
2023-12-24T18:45:22.161Z,1.00
2023-12-24T18:48:48.046Z,0.70
2023-12-24T18:52:12.387Z,0.70
2023-12-24T18:55:38.632Z,0.80
2023-12-24T18:59:02.410Z,0.87
2023-12-24T19:02:26.346Z,0.70
2023-12-24T19:05:50.291Z,0.90
2023-12-24T19:09:14.019Z,0.90
2023-12-24T19:12:39.318Z,0.87
2023-12-24T19:16:03.076Z,1.00
2023-12-24T19:19:27.100Z,1.00
2023-12-24T19:22:51.308Z,1.27
2023-12-24T19:26:15.249Z,1.00
2023-12-24T19:29:40.299Z,0.93
2023-12-24T19:33:04.276Z,0.90
2023-12-24T19:36:28.360Z,0.90
2023-12-24T19:39:52.329Z,0.80
2023-12-24T19:43:15.983Z,1.20
2023-12-24T19:46:41.450Z,0.90
2023-12-24T19:50:05.820Z,0.83
2023-12-24T19:53:29.693Z,1.00
2023-12-24T19:56:53.633Z,1.00
2023-12-24T20:00:18.216Z,0.80
2023-12-24T20:03:43.190Z,0.83
2023-12-24T20:07:07.113Z,0.87
2023-12-24T20:10:30.709Z,0.90
2023-12-24T20:13:54.673Z,0.97
2023-12-24T20:17:35.984Z,0.80
2023-12-24T20:21:01.826Z,1.50
2023-12-24T20:24:25.616Z,1.27
2023-12-24T20:27:49.713Z,1.00
2023-12-24T20:31:16.615Z,1.00
2023-12-24T20:34:40.263Z,0.80
2023-12-24T20:38:05.664Z,0.90
2023-12-24T20:41:29.940Z,0.90
2023-12-24T20:44:55.015Z,0.80
2023-12-24T20:48:20.771Z,0.90
2023-12-24T20:51:48.257Z,0.90
2023-12-24T20:55:41.937Z,0.90
2023-12-24T20:59:05.986Z,0.80
2023-12-24T21:02:34.703Z,1.10
2023-12-24T21:05:58.772Z,0.90
2023-12-24T21:09:23.002Z,1.17
2023-12-24T21:12:48.135Z,0.80
2023-12-24T21:16:12.046Z,1.07
2023-12-24T21:19:35.954Z,1.00
2023-12-24T21:22:59.933Z,0.90
2023-12-24T21:26:24.671Z,1.83
2023-12-24T21:29:49.484Z,1.50
2023-12-24T21:33:14.401Z,1.20
2023-12-24T21:36:38.309Z,1.00
2023-12-24T21:40:02.286Z,0.83
2023-12-24T21:43:26.434Z,0.97
2023-12-24T21:46:51.320Z,1.20
2023-12-24T21:50:15.387Z,1.10
2023-12-24T21:53:39.417Z,1.00
2023-12-24T21:57:04.393Z,0.90
2023-12-24T22:00:44.155Z,1.00
2023-12-24T22:04:13.639Z,1.00
2023-12-24T22:07:37.560Z,1.17
2023-12-24T22:11:06.164Z,0.90
2023-12-24T22:14:34.734Z,0.90
2023-12-24T22:17:59.004Z,0.70
2023-12-24T22:21:25.135Z,0.80
2023-12-24T22:24:49.242Z,1.00
2023-12-24T22:28:13.009Z,0.80
2023-12-24T22:31:36.923Z,0.80
2023-12-24T22:35:01.455Z,0.80
2023-12-24T22:38:27.375Z,0.70
2023-12-24T22:41:51.338Z,0.80
2023-12-24T22:45:15.288Z,0.70
2023-12-24T22:48:39.436Z,0.80
2023-12-24T22:52:03.513Z,1.10
2023-12-24T22:55:28.626Z,0.87
2023-12-24T22:58:52.072Z,0.80
2023-12-24T23:02:15.558Z,0.90
2023-12-24T23:05:40.287Z,0.80
2023-12-24T23:13:22.519Z,0.80
2023-12-24T23:16:45.918Z,0.90
2023-12-24T23:20:11.925Z,0.80
2023-12-24T23:23:35.881Z,0.80
2023-12-24T23:27:00.264Z,0.80
2023-12-24T23:30:25.637Z,0.70
2023-12-24T23:33:50.190Z,0.80
2023-12-24T23:37:15.192Z,0.60
2023-12-24T23:40:39.397Z,0.80
2023-12-24T23:44:02.876Z,0.80
2023-12-24T23:47:28.261Z,0.80
2023-12-24T23:50:52.712Z,0.87
2023-12-24T23:54:16.837Z,0.80
2023-12-24T23:57:40.669Z,0.70
